createdAt,value
2023-01-26T00:01:31.272Z,101587.06
2023-01-26T00:03:58.523Z,101581.91
2023-01-26T00:06:26.278Z,101574.09
2023-01-26T00:08:59.596Z,101576.66
2023-01-26T00:11:29.357Z,101577.47
2023-01-26T00:13:59.938Z,101571.41
2023-01-26T00:16:28.402Z,101573.19
2023-01-26T00:18:55.547Z,101577.38
2023-01-26T00:21:24.932Z,101570.38
2023-01-26T00:23:53.405Z,101568.69
2023-01-26T00:26:24.933Z,101559.78
2023-01-26T00:28:53.226Z,101558.50
2023-01-26T00:31:26.712Z,101545.72
2023-01-26T00:33:55.625Z,101547.63
2023-01-26T00:36:23.162Z,101535.63
2023-01-26T00:38:50.231Z,101534.03
2023-01-26T00:41:35.775Z,101537.41
2023-01-26T00:44:02.862Z,101539.00
2023-01-26T00:46:30.151Z,101538.22
2023-01-26T00:48:57.155Z,101533.75
2023-01-26T00:51:24.125Z,101531.09
2023-01-26T00:53:51.087Z,101538.81
2023-01-26T00:56:18.069Z,101537.81
2023-01-26T00:58:45.704Z,101537.66
2023-01-26T01:01:12.890Z,101526.47
2023-01-26T01:03:39.791Z,101532.66
2023-01-26T01:06:06.756Z,101531.09
2023-01-26T01:08:33.787Z,101531.09
2023-01-26T01:11:10.715Z,101526.81
2023-01-26T01:13:38.807Z,101529.50
2023-01-26T01:16:12.563Z,101525.34
2023-01-26T01:18:39.797Z,101528.81
2023-01-26T01:21:13.654Z,101528.81
2023-01-26T01:23:41.428Z,101522.84
2023-01-26T01:26:09.648Z,101511.56
2023-01-26T01:28:37.901Z,101512.47
2023-01-26T01:31:06.913Z,101515.31
2023-01-26T01:33:33.976Z,101512.47
2023-01-26T01:36:07.769Z,101511.84
2023-01-26T01:38:35.566Z,101499.31
2023-01-26T01:41:02.688Z,101509.59
2023-01-26T01:43:30.205Z,101497.63
2023-01-26T01:45:59.231Z,101498.53
2023-01-26T01:48:43.438Z,101498.63
2023-01-26T01:51:31.587Z,101492.66
2023-01-26T01:54:04.719Z,101504.94
2023-01-26T01:56:33.621Z,101490.47
2023-01-26T01:59:03.017Z,101497.41
2023-01-26T02:01:30.452Z,101483.53
2023-01-26T02:04:02.336Z,101488.78
2023-01-26T02:06:39.804Z,101482.66
2023-01-26T02:09:07.460Z,101474.94
2023-01-26T02:11:41.379Z,101476.91
2023-01-26T02:14:12.175Z,101470.06
2023-01-26T02:16:40.092Z,101466.50
2023-01-26T02:19:29.078Z,101472.25
2023-01-26T02:22:00.663Z,101462.06
2023-01-26T02:24:34.393Z,101464.53
2023-01-26T02:27:02.184Z,101452.56
2023-01-26T02:29:29.259Z,101451.69
2023-01-26T02:31:56.299Z,101444.66
2023-01-26T02:34:25.252Z,101442.88
2023-01-26T02:37:00.015Z,101437.63
2023-01-26T02:40:00.633Z,101433.28
2023-01-26T02:42:41.672Z,101424.59
2023-01-26T02:45:12.981Z,101428.78
2023-01-26T02:47:40.551Z,101426.91
2023-01-26T02:50:11.346Z,101425.31
2023-01-26T02:52:38.718Z,101419.44
2023-01-26T02:55:22.408Z,101427.16
2023-01-26T02:58:10.736Z,101427.00
2023-01-26T03:00:37.972Z,101425.31
2023-01-26T03:03:15.863Z,101424.53
2023-01-26T03:05:43.174Z,101424.59
2023-01-26T03:08:10.209Z,101427.09
2023-01-26T03:10:37.799Z,101433.75
2023-01-26T03:13:05.018Z,101432.06
2023-01-26T03:15:42.764Z,101430.47
2023-01-26T03:18:34.558Z,101430.38
2023-01-26T03:21:24.072Z,101426.91
2023-01-26T03:24:09.940Z,101427.97
2023-01-26T03:26:55.931Z,101428.03
2023-01-26T03:29:23.037Z,101421.94
2023-01-26T03:31:50.214Z,101420.16
2023-01-26T03:34:17.195Z,101415.03
2023-01-26T03:36:44.171Z,101415.13
2023-01-26T03:39:31.116Z,101416.84
2023-01-26T03:42:17.072Z,101413.44
2023-01-26T03:45:02.564Z,101404.81
2023-01-26T03:47:50.539Z,101410.91
2023-01-26T03:50:36.090Z,101414.28
2023-01-26T03:53:21.544Z,101417.69
2023-01-26T03:56:07.095Z,101414.94
2023-01-26T03:58:34.035Z,101413.84
2023-01-26T04:01:01.059Z,101425.03
2023-01-26T04:03:46.438Z,101418.19
2023-01-26T04:06:31.855Z,101416.53
2023-01-26T04:08:58.814Z,101417.59
2023-01-26T04:11:25.769Z,101415.13
2023-01-26T04:14:11.317Z,101410.03
2023-01-26T04:16:56.972Z,101398.78
2023-01-26T04:19:42.570Z,101391.31
2023-01-26T04:22:09.522Z,101389.00
2023-01-26T04:24:36.486Z,101390.69
2023-01-26T04:27:03.490Z,101394.69
2023-01-26T04:29:30.296Z,101383.06
2023-01-26T04:31:57.248Z,101383.94
2023-01-26T04:34:24.223Z,101384.03
2023-01-26T04:36:51.197Z,101389.28
2023-01-26T04:39:18.215Z,101391.06
2023-01-26T04:41:45.873Z,101386.94
2023-01-26T04:44:12.864Z,101381.81
2023-01-26T04:46:39.770Z,101378.44
2023-01-26T04:49:06.756Z,101377.63
2023-01-26T04:51:33.717Z,101389.63
2023-01-26T04:54:00.725Z,101375.69
2023-01-26T04:56:31.718Z,101371.19
2023-01-26T04:59:05.266Z,101369.41
2023-01-26T05:01:32.667Z,101368.59
2023-01-26T05:04:02.970Z,101365.38
2023-01-26T05:06:30.631Z,101362.81
2023-01-26T05:08:58.561Z,101368.16
2023-01-26T05:11:25.824Z,101369.03
2023-01-26T05:13:52.766Z,101365.47
2023-01-26T05:16:19.888Z,101351.72
2023-01-26T05:18:47.100Z,101369.69
2023-01-26T05:21:14.239Z,101358.50
2023-01-26T05:23:41.323Z,101357.59
2023-01-26T05:26:08.930Z,101354.16
2023-01-26T05:28:36.537Z,101365.31
2023-01-26T05:31:03.824Z,101366.22
2023-01-26T05:33:31.565Z,101369.59
2023-01-26T05:35:58.801Z,101362.75
2023-01-26T05:38:26.409Z,101356.72
2023-01-26T05:40:53.362Z,101365.31
2023-01-26T05:43:20.275Z,101359.38
2023-01-26T05:45:47.347Z,101367.09
2023-01-26T05:48:14.349Z,101366.38
2023-01-26T05:50:41.357Z,101362.09
2023-01-26T05:53:08.304Z,101373.28
2023-01-26T05:55:35.328Z,101373.19
2023-01-26T05:58:02.331Z,101368.06
2023-01-26T06:00:29.291Z,101371.50
2023-01-26T06:02:56.311Z,101373.28
2023-01-26T06:05:23.292Z,101380.22
2023-01-26T06:07:50.233Z,101372.50
2023-01-26T06:10:17.363Z,101374.56
2023-01-26T06:12:44.407Z,101383.50
2023-01-26T06:15:12.689Z,101376.31
2023-01-26T06:17:46.879Z,101377.81
2023-01-26T06:20:14.808Z,101376.50
2023-01-26T06:22:41.812Z,101381.19
2023-01-26T06:25:09.570Z,101387.84
2023-01-26T06:27:36.457Z,101384.13
2023-01-26T06:30:05.518Z,101385.53
2023-01-26T06:32:32.475Z,101382.06
2023-01-26T06:34:59.433Z,101381.88
2023-01-26T06:37:26.381Z,101381.00
2023-01-26T06:39:53.317Z,101383.75
2023-01-26T06:42:20.255Z,101374.53
2023-01-26T06:44:47.245Z,101379.78
2023-01-26T06:47:14.960Z,101383.34
2023-01-26T06:49:41.903Z,101390.06
2023-01-26T06:52:32.087Z,101380.38
2023-01-26T06:55:00.505Z,101391.56
2023-01-26T06:57:27.611Z,101383.84
2023-01-26T06:59:56.135Z,101380.47
2023-01-26T07:02:23.363Z,101382.25
2023-01-26T07:04:51.176Z,101379.88
2023-01-26T07:07:18.162Z,101379.13
2023-01-26T07:09:45.140Z,101374.88
2023-01-26T07:12:12.467Z,101375.88
2023-01-26T07:14:39.391Z,101380.91
2023-01-26T07:17:06.263Z,101380.91
2023-01-26T07:19:33.958Z,101378.25
2023-01-26T07:22:01.735Z,101383.06
2023-01-26T07:24:29.164Z,101385.34
2023-01-26T07:26:56.722Z,101385.94
2023-01-26T07:29:23.847Z,101391.09
2023-01-26T07:31:51.076Z,101393.66
2023-01-26T07:34:18.063Z,101378.97
2023-01-26T07:36:45.582Z,101383.13
2023-01-26T07:39:12.550Z,101397.78
2023-01-26T07:41:39.583Z,101381.44
2023-01-26T07:44:10.574Z,101388.38
2023-01-26T07:46:37.735Z,101385.94
2023-01-26T07:49:04.733Z,101389.41
2023-01-26T07:51:31.722Z,101390.22
2023-01-26T07:53:59.110Z,101387.63
2023-01-26T07:56:26.435Z,101394.50
2023-01-26T07:58:54.852Z,101387.47
2023-01-26T08:01:23.008Z,101390.75
2023-01-26T08:03:52.158Z,101394.91
2023-01-26T08:06:20.360Z,101400.84
2023-01-26T08:08:53.606Z,101393.75
2023-01-26T08:11:23.423Z,101405.34
2023-01-26T08:13:50.458Z,101412.09
2023-01-26T08:16:18.082Z,101411.28
2023-01-26T08:18:46.351Z,101409.53
2023-01-26T08:21:15.971Z,101412.09
2023-01-26T08:23:43.187Z,101406.16
2023-01-26T08:26:13.354Z,101397.75
2023-01-26T08:28:41.373Z,101409.91
2023-01-26T08:31:12.388Z,101406.34
2023-01-26T08:33:42.621Z,101412.19
2023-01-26T08:36:13.419Z,101404.38
2023-01-26T08:38:42.120Z,101399.13
2023-01-26T08:41:09.905Z,101405.88
2023-01-26T08:43:37.079Z,101397.97
2023-01-26T08:46:05.226Z,101408.34
2023-01-26T08:48:32.462Z,101388.66
2023-01-26T08:51:02.603Z,101398.16
2023-01-26T08:53:34.725Z,101398.25
2023-01-26T08:56:03.991Z,101408.81
2023-01-26T08:58:31.591Z,101399.63
2023-01-26T09:00:58.694Z,101397.09
2023-01-26T09:03:26.099Z,101404.81
2023-01-26T09:05:53.059Z,101406.59
2023-01-26T09:08:20.028Z,101402.44
2023-01-26T09:10:47.069Z,101407.69
2023-01-26T09:13:14.007Z,101400.75
2023-01-26T09:15:41.061Z,101415.09
2023-01-26T09:18:08.011Z,101422.81
2023-01-26T09:20:35.017Z,101415.84
2023-01-26T09:23:02.021Z,101415.09
2023-01-26T09:25:29.147Z,101414.50
2023-01-26T09:27:56.397Z,101418.06
2023-01-26T09:30:25.008Z,101429.03
2023-01-26T09:32:52.256Z,101424.59
2023-01-26T09:35:19.505Z,101427.97
2023-01-26T09:37:46.525Z,101420.34
2023-01-26T09:40:24.474Z,101410.06
2023-01-26T09:43:44.001Z,101422.03
2023-01-26T09:46:42.879Z,101419.47
2023-01-26T09:49:32.137Z,101420.09
2023-01-26T09:52:04.758Z,101417.53
2023-01-26T09:55:03.105Z,101418.22
2023-01-26T09:57:44.555Z,101414.84
2023-01-26T10:00:28.741Z,101417.44
2023-01-26T10:03:02.421Z,101420.09
2023-01-26T10:05:41.775Z,101407.50
2023-01-26T10:08:13.725Z,101413.63
2023-01-26T10:11:12.023Z,101397.91
2023-01-26T10:13:39.111Z,101404.81
2023-01-26T10:16:10.604Z,101397.09
2023-01-26T10:18:59.310Z,101399.88
2023-01-26T10:21:34.168Z,101399.88
2023-01-26T10:24:02.993Z,101400.06
2023-01-26T10:26:34.363Z,101391.75
2023-01-26T10:29:02.156Z,101390.84
2023-01-26T10:31:32.764Z,101386.50
2023-01-26T10:34:15.704Z,101394.22
2023-01-26T10:36:46.318Z,101374.34
2023-01-26T10:39:18.075Z,101372.03
2023-01-26T10:42:04.219Z,101359.19
2023-01-26T10:44:37.757Z,101361.75
2023-01-26T10:47:25.680Z,101353.75
2023-01-26T10:49:52.727Z,101350.41
2023-01-26T10:52:23.510Z,101344.75
2023-01-26T10:55:09.907Z,101344.97
2023-01-26T10:57:41.996Z,101339.22
2023-01-26T11:00:32.829Z,101331.88
2023-01-26T11:03:19.279Z,101324.31
2023-01-26T11:05:49.145Z,101332.41
2023-01-26T11:08:37.068Z,101341.09
2023-01-26T11:11:07.750Z,101337.03
2023-01-26T11:13:34.691Z,101335.47
2023-01-26T11:16:24.430Z,101341.88
2023-01-26T11:19:13.613Z,101328.03
2023-01-26T11:22:07.385Z,101338.25
2023-01-26T11:24:42.631Z,101335.75
2023-01-26T11:27:21.581Z,101333.19
2023-01-26T11:30:34.530Z,101334.97
2023-01-26T11:33:18.190Z,101317.22
2023-01-26T11:36:06.091Z,101324.38
2023-01-26T11:38:49.673Z,101317.81
2023-01-26T11:41:46.825Z,101319.59
2023-01-26T11:44:43.284Z,101317.56
2023-01-26T11:47:12.891Z,101311.34
2023-01-26T11:49:57.549Z,101308.63
2023-01-26T11:53:08.848Z,101304.09
2023-01-26T11:55:56.790Z,101303.38
2023-01-26T11:58:46.849Z,101300.91
2023-01-26T12:01:29.023Z,101291.59
2023-01-26T12:03:57.077Z,101296.78
2023-01-26T12:06:44.082Z,101296.16
2023-01-26T12:09:38.615Z,101277.53
2023-01-26T12:12:22.765Z,101285.53
2023-01-26T12:15:13.289Z,101277.00
2023-01-26T12:18:04.094Z,101269.28
2023-01-26T12:21:03.322Z,101273.59
2023-01-26T12:24:02.927Z,101263.59
2023-01-26T12:26:37.452Z,101264.31
2023-01-26T12:29:53.973Z,101252.41
2023-01-26T12:32:22.644Z,101256.69
2023-01-26T12:34:49.774Z,101258.28
2023-01-26T12:37:32.610Z,101251.22
2023-01-26T12:40:09.276Z,101256.34
2023-01-26T12:43:12.974Z,101243.31
2023-01-26T12:45:42.663Z,101245.97
2023-01-26T12:48:50.879Z,101256.09
2023-01-26T12:51:33.738Z,101241.09
2023-01-26T12:54:09.312Z,101240.06
2023-01-26T12:56:52.623Z,101236.69
2023-01-26T12:59:47.630Z,101242.06
2023-01-26T13:02:26.885Z,101239.41
2023-01-26T13:04:54.335Z,101241.97
2023-01-26T13:07:37.770Z,101252.25
2023-01-26T13:10:18.005Z,101249.69
2023-01-26T13:12:49.192Z,101249.16
2023-01-26T13:15:20.190Z,101256.34
2023-01-26T13:17:59.260Z,101260.03
2023-01-26T13:20:46.040Z,101263.59
2023-01-26T13:23:28.425Z,101250.91
2023-01-26T13:26:33.461Z,101251.16
2023-01-26T13:29:25.148Z,101251.31
2023-01-26T13:31:54.981Z,101253.19
2023-01-26T13:34:43.107Z,101264.28
2023-01-26T13:37:17.502Z,101266.94
2023-01-26T13:39:52.827Z,101272.00
2023-01-26T13:42:28.449Z,101274.56
2023-01-26T13:45:04.759Z,101273.78
2023-01-26T13:47:43.912Z,101273.94
2023-01-26T13:50:34.669Z,101279.19
2023-01-26T13:53:02.168Z,101274.13
2023-01-26T13:55:33.508Z,101279.28
2023-01-26T13:58:16.243Z,101273.06
2023-01-26T14:00:43.644Z,101281.50
2023-01-26T14:03:23.635Z,101274.75
2023-01-26T14:06:09.088Z,101276.53
2023-01-26T14:08:37.898Z,101274.56
2023-01-26T14:11:21.098Z,101287.34
2023-01-26T14:13:56.073Z,101275.53
2023-01-26T14:16:36.162Z,101284.25
2023-01-26T14:19:17.401Z,101272.09
2023-01-26T14:21:57.141Z,101278.38
2023-01-26T14:24:30.217Z,101281.41
2023-01-26T14:26:57.447Z,101283.47
2023-01-26T14:29:30.341Z,101281.91
2023-01-26T14:31:59.761Z,101281.31
2023-01-26T14:34:29.844Z,101273.13
2023-01-26T14:37:15.826Z,101272.63
2023-01-26T14:39:45.802Z,101274.13
2023-01-26T14:42:15.721Z,101276.69
2023-01-26T14:44:43.034Z,101277.75
2023-01-26T14:47:23.515Z,101269.41
2023-01-26T14:50:12.005Z,101282.44
2023-01-26T14:52:44.589Z,101296.47
2023-01-26T14:55:26.509Z,101282.81
2023-01-26T14:57:54.452Z,101276.97
2023-01-26T15:00:35.857Z,101277.84
2023-01-26T15:03:13.015Z,101271.81
2023-01-26T15:05:43.465Z,101275.41
2023-01-26T15:08:24.593Z,101280.56
2023-01-26T15:11:16.357Z,101280.41
2023-01-26T15:13:47.070Z,101282.63
2023-01-26T15:16:20.684Z,101288.66
2023-01-26T15:19:03.053Z,101280.25
2023-01-26T15:21:35.102Z,101282.16
2023-01-26T15:24:03.684Z,101285.63
2023-01-26T15:26:36.014Z,101293.19
2023-01-26T15:29:24.282Z,101294.00
2023-01-26T15:31:56.785Z,101293.81
2023-01-26T15:34:42.238Z,101295.31
2023-01-26T15:37:33.700Z,101302.84
2023-01-26T15:40:00.701Z,101304.47
2023-01-26T15:42:32.948Z,101298.06
2023-01-26T15:44:59.918Z,101301.16
2023-01-26T15:47:26.915Z,101301.41
2023-01-26T15:49:53.950Z,101298.66
2023-01-26T15:52:30.492Z,101308.94
2023-01-26T15:54:57.529Z,101304.97
2023-01-26T15:57:24.446Z,101304.38
2023-01-26T15:59:51.411Z,101311.19
2023-01-26T16:02:21.049Z,101309.94
2023-01-26T16:04:48.443Z,101306.94
2023-01-26T16:07:18.552Z,101306.53
2023-01-26T16:09:45.643Z,101305.84
2023-01-26T16:12:30.567Z,101312.75
2023-01-26T16:14:58.780Z,101312.56
2023-01-26T16:17:26.057Z,101316.41
2023-01-26T16:19:52.963Z,101316.66
2023-01-26T16:22:19.998Z,101312.50
2023-01-26T16:24:47.250Z,101315.44
2023-01-26T16:27:14.228Z,101312.97
2023-01-26T16:29:41.224Z,101312.41
2023-01-26T16:32:29.658Z,101314.19
2023-01-26T16:34:56.691Z,101310.13
2023-01-26T16:37:23.624Z,101303.41
2023-01-26T16:39:50.591Z,101303.56
2023-01-26T16:42:21.210Z,101299.31
2023-01-26T16:44:48.520Z,101298.06
2023-01-26T16:47:15.451Z,101296.66
2023-01-26T16:49:42.404Z,101302.31
2023-01-26T16:52:10.188Z,101300.81
2023-01-26T16:54:37.363Z,101306.25
2023-01-26T16:57:04.566Z,101306.91
2023-01-26T16:59:31.693Z,101309.19
2023-01-26T17:01:58.777Z,101300.69
2023-01-26T17:04:25.853Z,101304.13
2023-01-26T17:06:52.874Z,101296.84
2023-01-26T17:09:21.137Z,101298.97
2023-01-26T17:11:48.115Z,101300.44
2023-01-26T17:14:15.075Z,101297.00
2023-01-26T17:16:42.138Z,101297.69
2023-01-26T17:19:09.671Z,101298.69
2023-01-26T17:21:37.171Z,101304.81
2023-01-26T17:24:04.621Z,101298.16
2023-01-26T17:26:31.716Z,101299.22
2023-01-26T17:28:58.700Z,101295.69
2023-01-26T17:31:25.822Z,101299.41
2023-01-26T17:33:54.523Z,101304.13
2023-01-26T17:36:21.564Z,101302.72
2023-01-26T17:38:49.561Z,101293.41
2023-01-26T17:41:17.518Z,101291.03
2023-01-26T17:43:45.036Z,101294.97
2023-01-26T17:46:17.974Z,101307.25
2023-01-26T17:48:45.936Z,101316.16
2023-01-26T17:51:19.038Z,101310.31
2023-01-26T17:53:49.577Z,101315.59
2023-01-26T17:56:19.453Z,101320.13
2023-01-26T17:58:52.805Z,101316.78
2023-01-26T18:01:22.342Z,101317.66
2023-01-26T18:03:49.407Z,101327.16
2023-01-26T18:06:16.861Z,101322.28
2023-01-26T18:08:43.892Z,101338.50
2023-01-26T18:11:14.572Z,101334.97
2023-01-26T18:13:42.164Z,101338.41
2023-01-26T18:16:13.282Z,101335.56
2023-01-26T18:18:40.245Z,101334.44
2023-01-26T18:21:18.962Z,101334.34
2023-01-26T18:23:59.196Z,101332.19
2023-01-26T18:26:30.033Z,101326.94
2023-01-26T18:28:57.419Z,101328.81
2023-01-26T18:31:35.536Z,101328.03
2023-01-26T18:34:04.421Z,101323.97
2023-01-26T18:36:32.521Z,101326.88
2023-01-26T18:39:04.159Z,101318.53
2023-01-26T18:41:31.601Z,101321.91
2023-01-26T18:43:59.166Z,101325.28
2023-01-26T18:46:28.218Z,101331.31
2023-01-26T18:49:00.628Z,101329.63
2023-01-26T18:51:30.394Z,101331.41
2023-01-26T18:53:58.187Z,101327.94
2023-01-26T18:56:25.269Z,101329.63
2023-01-26T18:58:53.869Z,101331.41
2023-01-26T19:01:22.340Z,101339.22
2023-01-26T19:03:55.049Z,101327.53
2023-01-26T19:06:24.459Z,101336.03
2023-01-26T19:09:02.659Z,101332.47
2023-01-26T19:11:33.528Z,101333.28
2023-01-26T19:14:02.619Z,101350.75
2023-01-26T19:16:30.874Z,101340.97
2023-01-26T19:18:58.372Z,101343.16
2023-01-26T19:21:27.545Z,101341.13
2023-01-26T19:23:58.519Z,101347.25
2023-01-26T19:26:30.807Z,101350.09
2023-01-26T19:28:58.971Z,101348.69
2023-01-26T19:31:28.152Z,101342.06
2023-01-26T19:34:04.393Z,101331.78
2023-01-26T19:36:34.072Z,101338.94
2023-01-26T19:39:02.614Z,101338.31
2023-01-26T19:41:29.691Z,101332.47
2023-01-26T19:43:56.791Z,101333.19
2023-01-26T19:46:23.834Z,101334.06
2023-01-26T19:48:51.106Z,101337.34
2023-01-26T19:51:26.774Z,101345.06
2023-01-26T19:53:59.057Z,101345.66
2023-01-26T19:56:32.959Z,101346.47
2023-01-26T19:59:04.293Z,101343.88
2023-01-26T20:01:32.715Z,101341.16
2023-01-26T20:04:03.243Z,101338.50
2023-01-26T20:06:33.380Z,101337.78
2023-01-26T20:09:00.970Z,101336.19
2023-01-26T20:11:29.721Z,101335.47
2023-01-26T20:14:11.406Z,101344.88
2023-01-26T20:16:38.661Z,101338.13
2023-01-26T20:19:06.388Z,101338.13
2023-01-26T20:21:33.867Z,101340.81
2023-01-26T20:24:05.576Z,101342.59
2023-01-26T20:26:33.226Z,101336.47
2023-01-26T20:29:00.419Z,101340.72
2023-01-26T20:31:27.813Z,101338.13
2023-01-26T20:33:55.323Z,101345.94
2023-01-26T20:36:27.219Z,101341.78
2023-01-26T20:38:54.733Z,101344.44
2023-01-26T20:41:30.094Z,101352.25
2023-01-26T20:44:01.986Z,101351.38
2023-01-26T20:46:36.800Z,101358.19
2023-01-26T20:49:05.323Z,101342.97
2023-01-26T20:51:35.945Z,101354.19
2023-01-26T20:54:06.591Z,101349.88
2023-01-26T20:56:35.512Z,101344.63
2023-01-26T20:59:03.220Z,101348.09
2023-01-26T21:01:33.655Z,101347.31
2023-01-26T21:04:02.265Z,101344.00
2023-01-26T21:06:29.998Z,101347.56
2023-01-26T21:08:59.267Z,101341.78
2023-01-26T21:11:30.412Z,101350.59
2023-01-26T21:14:01.102Z,101346.47
2023-01-26T21:16:29.148Z,101341.34
2023-01-26T21:18:56.117Z,101346.44
2023-01-26T21:21:23.158Z,101350.78
2023-01-26T21:23:50.856Z,101344.81
2023-01-26T21:26:22.336Z,101334.78
2023-01-26T21:28:59.023Z,101338.06
2023-01-26T21:31:30.467Z,101348.13
2023-01-26T21:33:59.803Z,101342.97
2023-01-26T21:36:30.957Z,101336.75
2023-01-26T21:38:59.451Z,101332.75
2023-01-26T21:41:48.207Z,101336.28
2023-01-26T21:44:21.130Z,101343.13
2023-01-26T21:46:52.279Z,101327.66
2023-01-26T21:49:19.710Z,101320.03
2023-01-26T21:52:05.235Z,101321.91
2023-01-26T21:54:33.318Z,101319.34
2023-01-26T21:57:02.198Z,101322.00
2023-01-26T21:59:30.405Z,101322.88
2023-01-26T22:01:58.532Z,101328.22
2023-01-26T22:04:31.066Z,101330.78
2023-01-26T22:06:58.370Z,101337.00
2023-01-26T22:09:25.598Z,101346.41
2023-01-26T22:11:52.877Z,101346.50
2023-01-26T22:14:26.259Z,101341.34
2023-01-26T22:16:53.534Z,101346.50
2023-01-26T22:19:20.604Z,101349.69
2023-01-26T22:21:47.602Z,101342.50
2023-01-26T22:24:15.058Z,101345.63
2023-01-26T22:26:42.576Z,101349.78
2023-01-26T22:29:12.043Z,101346.34
2023-01-26T22:31:39.080Z,101348.19
2023-01-26T22:34:06.082Z,101359.63
2023-01-26T22:36:33.483Z,101347.91
2023-01-26T22:39:00.997Z,101351.66
2023-01-26T22:41:30.419Z,101349.31
2023-01-26T22:43:59.931Z,101344.97
2023-01-26T22:46:29.310Z,101354.13
2023-01-26T22:48:58.561Z,101357.66
2023-01-26T22:51:29.441Z,101350.13
2023-01-26T22:53:58.056Z,101351.81
2023-01-26T22:56:26.492Z,101350.03
2023-01-26T22:59:00.592Z,101354.38
2023-01-26T23:01:33.094Z,101353.41
2023-01-26T23:04:00.795Z,101349.78
2023-01-26T23:06:28.393Z,101344.47
2023-01-26T23:08:55.559Z,101346.94
2023-01-26T23:11:26.749Z,101340.38
2023-01-26T23:13:55.396Z,101339.75
2023-01-26T23:16:23.758Z,101339.31
2023-01-26T23:18:52.320Z,101345.63
2023-01-26T23:21:20.189Z,101334.78
2023-01-26T23:23:47.443Z,101338.59
2023-01-26T23:26:14.667Z,101339.72
2023-01-26T23:28:43.624Z,101339.09
2023-01-26T23:31:13.081Z,101342.66
2023-01-26T23:33:40.979Z,101336.72
2023-01-26T23:36:09.870Z,101342.94
2023-01-26T23:38:37.076Z,101337.69
2023-01-26T23:41:08.714Z,101345.84
2023-01-26T23:43:35.790Z,101337.94
2023-01-26T23:46:03.321Z,101338.50
2023-01-26T23:48:30.605Z,101341.97
2023-01-26T23:51:00.006Z,101340.09
2023-01-26T23:53:28.175Z,101339.03
2023-01-26T23:55:56.039Z,101346.66
2023-01-26T23:58:23.109Z,101340.63
